sensor_id;sensor_type;location;lat;lon;timestamp;temperature;humidity
52127;DHT22;38120;53.176;6.614;2022-11-23T00:01:39;7.40;99.90
52127;DHT22;38120;53.176;6.614;2022-11-23T00:04:07;7.40;99.90
52127;DHT22;38120;53.176;6.614;2022-11-23T00:06:33;7.80;99.90
52127;DHT22;38120;53.176;6.614;2022-11-23T00:08:59;7.40;99.90
52127;DHT22;38120;53.176;6.614;2022-11-23T00:11:26;7.40;99.90
52127;DHT22;38120;53.176;6.614;2022-11-23T00:13:53;7.40;99.90
52127;DHT22;38120;53.176;6.614;2022-11-23T00:16:24;7.50;99.90
52127;DHT22;38120;53.176;6.614;2022-11-23T00:18:55;7.50;99.90
52127;DHT22;38120;53.176;6.614;2022-11-23T00:21:23;8.60;99.90
52127;DHT22;38120;53.176;6.614;2022-11-23T00:23:49;7.50;99.90
52127;DHT22;38120;53.176;6.614;2022-11-23T00:26:16;7.50;99.90
52127;DHT22;38120;53.176;6.614;2022-11-23T00:28:42;7.50;99.90
52127;DHT22;38120;53.176;6.614;2022-11-23T00:31:13;8.50;99.90
52127;DHT22;38120;53.176;6.614;2022-11-23T00:33:39;7.60;99.90
52127;DHT22;38120;53.176;6.614;2022-11-23T00:36:10;7.60;99.90
52127;DHT22;38120;53.176;6.614;2022-11-23T00:38:37;7.60;99.90
52127;DHT22;38120;53.176;6.614;2022-11-23T00:41:06;7.60;99.90
52127;DHT22;38120;53.176;6.614;2022-11-23T00:43:33;7.70;99.90
52127;DHT22;38120;53.176;6.614;2022-11-23T00:46:25;7.70;99.90
52127;DHT22;38120;53.176;6.614;2022-11-23T00:48:53;7.70;99.90
52127;DHT22;38120;53.176;6.614;2022-11-23T00:51:22;7.90;99.90
52127;DHT22;38120;53.176;6.614;2022-11-23T00:53:51;7.70;99.90
52127;DHT22;38120;53.176;6.614;2022-11-23T00:56:18;7.80;99.90
52127;DHT22;38120;53.176;6.614;2022-11-23T00:58:51;7.80;99.90
52127;DHT22;38120;53.176;6.614;2022-11-23T01:01:19;7.80;99.90
52127;DHT22;38120;53.176;6.614;2022-11-23T01:03:48;8.20;99.90
52127;DHT22;38120;53.176;6.614;2022-11-23T01:06:20;7.80;99.90
52127;DHT22;38120;53.176;6.614;2022-11-23T01:08:54;7.80;99.90
52127;DHT22;38120;53.176;6.614;2022-11-23T01:11:21;7.80;99.90
52127;DHT22;38120;53.176;6.614;2022-11-23T01:13:48;7.90;99.90
52127;DHT22;38120;53.176;6.614;2022-11-23T01:18:41;7.90;99.90
52127;DHT22;38120;53.176;6.614;2022-11-23T01:21:07;7.90;99.90
52127;DHT22;38120;53.176;6.614;2022-11-23T01:23:33;7.90;99.90
52127;DHT22;38120;53.176;6.614;2022-11-23T01:26:07;8.00;99.90
52127;DHT22;38120;53.176;6.614;2022-11-23T01:28:34;7.90;99.90
52127;DHT22;38120;53.176;6.614;2022-11-23T01:31:09;7.90;99.90
52127;DHT22;38120;53.176;6.614;2022-11-23T01:33:36;8.00;99.90
52127;DHT22;38120;53.176;6.614;2022-11-23T01:36:13;7.90;99.90
52127;DHT22;38120;53.176;6.614;2022-11-23T01:38:40;8.00;99.90
52127;DHT22;38120;53.176;6.614;2022-11-23T01:41:06;8.00;99.90
52127;DHT22;38120;53.176;6.614;2022-11-23T01:43:33;8.10;99.90
52127;DHT22;38120;53.176;6.614;2022-11-23T01:46:00;8.00;99.90
52127;DHT22;38120;53.176;6.614;2022-11-23T01:48:39;8.00;99.90
52127;DHT22;38120;53.176;6.614;2022-11-23T01:51:31;8.00;99.90
52127;DHT22;38120;53.176;6.614;2022-11-23T01:54:14;8.50;99.90
52127;DHT22;38120;53.176;6.614;2022-11-23T01:56:48;8.00;99.90
52127;DHT22;38120;53.176;6.614;2022-11-23T01:59:16;8.10;99.90
52127;DHT22;38120;53.176;6.614;2022-11-23T02:01:43;8.10;99.90
52127;DHT22;38120;53.176;6.614;2022-11-23T02:04:12;8.10;99.90
52127;DHT22;38120;53.176;6.614;2022-11-23T02:06:40;8.10;99.90
52127;DHT22;38120;53.176;6.614;2022-11-23T02:09:07;8.20;99.90
52127;DHT22;38120;53.176;6.614;2022-11-23T02:11:33;8.10;99.90
52127;DHT22;38120;53.176;6.614;2022-11-23T02:13:58;8.10;99.90
52127;DHT22;38120;53.176;6.614;2022-11-23T02:16:25;8.10;99.90
52127;DHT22;38120;53.176;6.614;2022-11-23T02:18:51;8.30;99.90
52127;DHT22;38120;53.176;6.614;2022-11-23T02:21:18;8.10;99.90
52127;DHT22;38120;53.176;6.614;2022-11-23T02:24:04;8.10;99.90
52127;DHT22;38120;53.176;6.614;2022-11-23T02:26:35;8.10;99.90
52127;DHT22;38120;53.176;6.614;2022-11-23T02:29:16;8.10;99.90
52127;DHT22;38120;53.176;6.614;2022-11-23T02:31:43;8.10;99.90
52127;DHT22;38120;53.176;6.614;2022-11-23T02:34:08;8.10;99.90
52127;DHT22;38120;53.176;6.614;2022-11-23T02:39:33;8.20;99.90
52127;DHT22;38120;53.176;6.614;2022-11-23T02:42:00;8.10;99.90
52127;DHT22;38120;53.176;6.614;2022-11-23T02:47:13;8.10;99.90
52127;DHT22;38120;53.176;6.614;2022-11-23T02:49:45;8.20;99.90
52127;DHT22;38120;53.176;6.614;2022-11-23T02:52:12;8.20;99.90
52127;DHT22;38120;53.176;6.614;2022-11-23T02:54:38;8.20;99.90
52127;DHT22;38120;53.176;6.614;2022-11-23T02:57:04;8.20;99.90
52127;DHT22;38120;53.176;6.614;2022-11-23T02:59:30;8.20;99.90
52127;DHT22;38120;53.176;6.614;2022-11-23T03:02:01;8.20;99.90
52127;DHT22;38120;53.176;6.614;2022-11-23T03:04:27;8.20;99.90
52127;DHT22;38120;53.176;6.614;2022-11-23T03:06:53;8.20;99.90
52127;DHT22;38120;53.176;6.614;2022-11-23T03:09:19;8.20;99.90
52127;DHT22;38120;53.176;6.614;2022-11-23T03:11:44;8.20;99.90
52127;DHT22;38120;53.176;6.614;2022-11-23T03:14:10;8.30;99.90
52127;DHT22;38120;53.176;6.614;2022-11-23T03:16:36;8.20;99.90
52127;DHT22;38120;53.176;6.614;2022-11-23T03:19:02;8.20;99.90
52127;DHT22;38120;53.176;6.614;2022-11-23T03:21:28;8.20;99.90
52127;DHT22;38120;53.176;6.614;2022-11-23T03:23:54;8.20;99.90
52127;DHT22;38120;53.176;6.614;2022-11-23T03:26:20;8.20;99.90
52127;DHT22;38120;53.176;6.614;2022-11-23T03:28:46;8.20;99.90
52127;DHT22;38120;53.176;6.614;2022-11-23T03:31:11;8.20;99.90
52127;DHT22;38120;53.176;6.614;2022-11-23T03:33:37;8.20;99.90
52127;DHT22;38120;53.176;6.614;2022-11-23T03:36:03;8.30;99.90
52127;DHT22;38120;53.176;6.614;2022-11-23T03:38:29;8.30;99.90
52127;DHT22;38120;53.176;6.614;2022-11-23T03:40:55;8.30;99.90
52127;DHT22;38120;53.176;6.614;2022-11-23T03:43:21;8.30;99.90
52127;DHT22;38120;53.176;6.614;2022-11-23T03:45:47;8.30;99.90
52127;DHT22;38120;53.176;6.614;2022-11-23T03:48:13;8.30;99.90
52127;DHT22;38120;53.176;6.614;2022-11-23T03:50:39;8.30;99.90
52127;DHT22;38120;53.176;6.614;2022-11-23T03:53:04;8.30;99.90
52127;DHT22;38120;53.176;6.614;2022-11-23T03:55:31;8.30;99.90
52127;DHT22;38120;53.176;6.614;2022-11-23T03:57:57;8.30;99.90
52127;DHT22;38120;53.176;6.614;2022-11-23T04:00:29;8.30;99.90
52127;DHT22;38120;53.176;6.614;2022-11-23T04:02:55;8.30;99.90
52127;DHT22;38120;53.176;6.614;2022-11-23T04:05:21;8.30;99.90
52127;DHT22;38120;53.176;6.614;2022-11-23T04:07:47;8.30;99.90
52127;DHT22;38120;53.176;6.614;2022-11-23T04:10:15;8.30;99.90
52127;DHT22;38120;53.176;6.614;2022-11-23T04:12:41;8.30;99.90
52127;DHT22;38120;53.176;6.614;2022-11-23T04:15:07;9.40;99.90
52127;DHT22;38120;53.176;6.614;2022-11-23T04:17:33;8.30;99.90
52127;DHT22;38120;53.176;6.614;2022-11-23T04:19:59;8.40;99.90
52127;DHT22;38120;53.176;6.614;2022-11-23T04:22:24;8.80;99.90
52127;DHT22;38120;53.176;6.614;2022-11-23T04:24:50;8.30;99.90
52127;DHT22;38120;53.176;6.614;2022-11-23T04:27:15;8.40;99.90
52127;DHT22;38120;53.176;6.614;2022-11-23T04:29:41;8.40;99.90
52127;DHT22;38120;53.176;6.614;2022-11-23T04:32:07;8.30;99.90
52127;DHT22;38120;53.176;6.614;2022-11-23T04:34:33;8.40;99.90
52127;DHT22;38120;53.176;6.614;2022-11-23T04:36:58;8.40;99.90
52127;DHT22;38120;53.176;6.614;2022-11-23T04:39:24;8.40;99.90
52127;DHT22;38120;53.176;6.614;2022-11-23T04:41:50;8.40;99.90
52127;DHT22;38120;53.176;6.614;2022-11-23T04:44:16;8.40;99.90
52127;DHT22;38120;53.176;6.614;2022-11-23T04:46:42;8.40;99.90
52127;DHT22;38120;53.176;6.614;2022-11-23T04:49:08;8.40;99.90
52127;DHT22;38120;53.176;6.614;2022-11-23T04:51:34;8.40;99.90
52127;DHT22;38120;53.176;6.614;2022-11-23T04:53:59;8.40;99.90
52127;DHT22;38120;53.176;6.614;2022-11-23T04:56:25;8.40;99.90
52127;DHT22;38120;53.176;6.614;2022-11-23T04:58:51;8.40;99.90
52127;DHT22;38120;53.176;6.614;2022-11-23T05:01:16;8.40;99.90
52127;DHT22;38120;53.176;6.614;2022-11-23T05:03:42;8.40;99.90
52127;DHT22;38120;53.176;6.614;2022-11-23T05:06:08;8.40;99.90
52127;DHT22;38120;53.176;6.614;2022-11-23T05:08:35;8.30;99.90
52127;DHT22;38120;53.176;6.614;2022-11-23T05:11:01;8.40;99.90
52127;DHT22;38120;53.176;6.614;2022-11-23T05:13:26;8.30;99.90
52127;DHT22;38120;53.176;6.614;2022-11-23T05:15:52;8.40;99.90
52127;DHT22;38120;53.176;6.614;2022-11-23T05:18:18;8.40;99.90
52127;DHT22;38120;53.176;6.614;2022-11-23T05:20:44;8.70;99.90
52127;DHT22;38120;53.176;6.614;2022-11-23T05:23:10;8.40;99.90
52127;DHT22;38120;53.176;6.614;2022-11-23T05:25:36;8.40;99.90
52127;DHT22;38120;53.176;6.614;2022-11-23T05:28:02;8.40;99.90
52127;DHT22;38120;53.176;6.614;2022-11-23T05:30:28;8.40;99.90
52127;DHT22;38120;53.176;6.614;2022-11-23T05:33:01;8.40;99.90
52127;DHT22;38120;53.176;6.614;2022-11-23T05:35:28;8.40;99.90
52127;DHT22;38120;53.176;6.614;2022-11-23T05:37:54;9.40;99.90
52127;DHT22;38120;53.176;6.614;2022-11-23T05:40:19;8.80;99.90
52127;DHT22;38120;53.176;6.614;2022-11-23T05:42:45;8.50;99.90
52127;DHT22;38120;53.176;6.614;2022-11-23T05:45:11;8.50;99.90
52127;DHT22;38120;53.176;6.614;2022-11-23T05:47:36;8.50;99.90
52127;DHT22;38120;53.176;6.614;2022-11-23T05:50:03;8.50;99.90
52127;DHT22;38120;53.176;6.614;2022-11-23T05:52:44;8.50;99.90
52127;DHT22;38120;53.176;6.614;2022-11-23T05:55:10;8.50;99.90
52127;DHT22;38120;53.176;6.614;2022-11-23T05:57:36;8.50;99.90
52127;DHT22;38120;53.176;6.614;2022-11-23T06:00:03;8.60;99.90
52127;DHT22;38120;53.176;6.614;2022-11-23T06:02:29;8.60;99.90
52127;DHT22;38120;53.176;6.614;2022-11-23T06:04:55;8.60;99.90
52127;DHT22;38120;53.176;6.614;2022-11-23T06:07:20;8.60;99.90
52127;DHT22;38120;53.176;6.614;2022-11-23T06:09:46;8.60;99.90
52127;DHT22;38120;53.176;6.614;2022-11-23T06:12:12;8.60;99.90
52127;DHT22;38120;53.176;6.614;2022-11-23T06:14:38;8.60;99.90
52127;DHT22;38120;53.176;6.614;2022-11-23T06:17:03;8.50;99.90
52127;DHT22;38120;53.176;6.614;2022-11-23T06:19:29;8.60;99.90
52127;DHT22;38120;53.176;6.614;2022-11-23T06:21:56;8.60;99.90
52127;DHT22;38120;53.176;6.614;2022-11-23T06:24:22;8.50;99.90
52127;DHT22;38120;53.176;6.614;2022-11-23T06:26:52;8.50;99.90
52127;DHT22;38120;53.176;6.614;2022-11-23T06:29:19;8.50;99.90
52127;DHT22;38120;53.176;6.614;2022-11-23T06:31:45;8.50;99.90
52127;DHT22;38120;53.176;6.614;2022-11-23T06:34:10;8.50;99.90
52127;DHT22;38120;53.176;6.614;2022-11-23T06:36:36;8.50;99.90
52127;DHT22;38120;53.176;6.614;2022-11-23T06:39:02;8.50;99.90
52127;DHT22;38120;53.176;6.614;2022-11-23T06:41:28;8.50;99.90
52127;DHT22;38120;53.176;6.614;2022-11-23T06:43:53;8.50;99.90
52127;DHT22;38120;53.176;6.614;2022-11-23T06:46:19;8.50;99.90
52127;DHT22;38120;53.176;6.614;2022-11-23T06:48:46;8.50;99.90
52127;DHT22;38120;53.176;6.614;2022-11-23T06:51:12;8.50;99.90
52127;DHT22;38120;53.176;6.614;2022-11-23T06:53:38;8.50;99.90
52127;DHT22;38120;53.176;6.614;2022-11-23T06:56:04;8.50;99.90
52127;DHT22;38120;53.176;6.614;2022-11-23T06:58:30;8.50;99.90
52127;DHT22;38120;53.176;6.614;2022-11-23T07:01:06;8.50;99.90
52127;DHT22;38120;53.176;6.614;2022-11-23T07:03:32;8.50;99.90
52127;DHT22;38120;53.176;6.614;2022-11-23T07:05:58;8.50;99.90
52127;DHT22;38120;53.176;6.614;2022-11-23T07:08:24;8.50;99.90
52127;DHT22;38120;53.176;6.614;2022-11-23T07:10:49;8.50;99.90
52127;DHT22;38120;53.176;6.614;2022-11-23T07:13:15;8.40;99.90
52127;DHT22;38120;53.176;6.614;2022-11-23T07:15:41;8.40;99.90
52127;DHT22;38120;53.176;6.614;2022-11-23T07:18:09;8.40;99.90
52127;DHT22;38120;53.176;6.614;2022-11-23T07:20:36;8.40;99.90
52127;DHT22;38120;53.176;6.614;2022-11-23T07:23:06;8.40;99.90
52127;DHT22;38120;53.176;6.614;2022-11-23T07:25:35;8.40;99.90
52127;DHT22;38120;53.176;6.614;2022-11-23T07:28:02;8.40;99.90
52127;DHT22;38120;53.176;6.614;2022-11-23T07:30:29;8.40;99.90
52127;DHT22;38120;53.176;6.614;2022-11-23T07:33:04;8.40;99.90
52127;DHT22;38120;53.176;6.614;2022-11-23T07:35:31;8.50;99.90
52127;DHT22;38120;53.176;6.614;2022-11-23T07:38:00;8.40;99.90
52127;DHT22;38120;53.176;6.614;2022-11-23T07:40:27;8.50;99.90
52127;DHT22;38120;53.176;6.614;2022-11-23T07:42:58;8.40;99.90
52127;DHT22;38120;53.176;6.614;2022-11-23T07:45:25;8.40;99.90
52127;DHT22;38120;53.176;6.614;2022-11-23T07:47:57;8.40;99.90
52127;DHT22;38120;53.176;6.614;2022-11-23T07:50:23;8.40;99.90
52127;DHT22;38120;53.176;6.614;2022-11-23T07:52:49;8.40;99.90
52127;DHT22;38120;53.176;6.614;2022-11-23T07:55:15;8.40;99.90
52127;DHT22;38120;53.176;6.614;2022-11-23T07:57:40;8.40;99.90
52127;DHT22;38120;53.176;6.614;2022-11-23T08:00:07;8.40;99.90
52127;DHT22;38120;53.176;6.614;2022-11-23T08:02:33;8.50;99.90
52127;DHT22;38120;53.176;6.614;2022-11-23T08:04:59;8.50;99.90
52127;DHT22;38120;53.176;6.614;2022-11-23T08:07:25;8.50;99.90
52127;DHT22;38120;53.176;6.614;2022-11-23T08:09:50;8.40;99.90
52127;DHT22;38120;53.176;6.614;2022-11-23T08:12:16;8.50;99.90
52127;DHT22;38120;53.176;6.614;2022-11-23T08:14:42;8.50;99.90
52127;DHT22;38120;53.176;6.614;2022-11-23T08:17:07;8.50;99.90
52127;DHT22;38120;53.176;6.614;2022-11-23T08:19:33;8.50;99.90
52127;DHT22;38120;53.176;6.614;2022-11-23T08:21:59;8.50;99.90
52127;DHT22;38120;53.176;6.614;2022-11-23T08:24:24;8.50;99.90
52127;DHT22;38120;53.176;6.614;2022-11-23T08:26:50;8.50;99.90
52127;DHT22;38120;53.176;6.614;2022-11-23T08:29:16;8.60;99.90
52127;DHT22;38120;53.176;6.614;2022-11-23T08:31:41;8.60;99.90
52127;DHT22;38120;53.176;6.614;2022-11-23T08:34:08;8.60;99.90
52127;DHT22;38120;53.176;6.614;2022-11-23T08:36:34;8.60;99.90
52127;DHT22;38120;53.176;6.614;2022-11-23T08:38:59;8.60;99.90
52127;DHT22;38120;53.176;6.614;2022-11-23T08:41:25;8.60;99.90
52127;DHT22;38120;53.176;6.614;2022-11-23T08:43:52;8.60;99.90
52127;DHT22;38120;53.176;6.614;2022-11-23T08:46:18;8.60;99.90
52127;DHT22;38120;53.176;6.614;2022-11-23T08:48:44;8.60;99.90
52127;DHT22;38120;53.176;6.614;2022-11-23T08:51:10;8.60;99.90
52127;DHT22;38120;53.176;6.614;2022-11-23T08:53:36;8.70;99.90
52127;DHT22;38120;53.176;6.614;2022-11-23T08:56:03;8.70;99.90
52127;DHT22;38120;53.176;6.614;2022-11-23T08:58:30;8.70;99.90
52127;DHT22;38120;53.176;6.614;2022-11-23T09:00:56;8.80;99.90
52127;DHT22;38120;53.176;6.614;2022-11-23T09:03:21;8.80;99.90
52127;DHT22;38120;53.176;6.614;2022-11-23T09:05:47;8.80;99.90
52127;DHT22;38120;53.176;6.614;2022-11-23T09:08:15;8.90;99.90
52127;DHT22;38120;53.176;6.614;2022-11-23T09:10:41;8.90;99.90
52127;DHT22;38120;53.176;6.614;2022-11-23T09:13:07;8.90;99.90
52127;DHT22;38120;53.176;6.614;2022-11-23T09:15:33;8.90;99.90
52127;DHT22;38120;53.176;6.614;2022-11-23T09:17:59;9.00;99.90
52127;DHT22;38120;53.176;6.614;2022-11-23T09:20:25;9.00;99.90
52127;DHT22;38120;53.176;6.614;2022-11-23T09:22:54;9.00;99.90
52127;DHT22;38120;53.176;6.614;2022-11-23T09:25:21;9.00;99.90
52127;DHT22;38120;53.176;6.614;2022-11-23T09:27:48;9.20;99.90
52127;DHT22;38120;53.176;6.614;2022-11-23T09:30:15;9.20;99.90
52127;DHT22;38120;53.176;6.614;2022-11-23T09:32:41;9.20;99.90
52127;DHT22;38120;53.176;6.614;2022-11-23T09:35:07;9.20;99.90
52127;DHT22;38120;53.176;6.614;2022-11-23T09:37:33;9.30;99.90
52127;DHT22;38120;53.176;6.614;2022-11-23T09:39:59;9.50;99.90
52127;DHT22;38120;53.176;6.614;2022-11-23T09:50:33;9.60;99.90
52127;DHT22;38120;53.176;6.614;2022-11-23T09:53:10;9.50;99.90
52127;DHT22;38120;53.176;6.614;2022-11-23T09:55:46;9.50;99.90
52127;DHT22;38120;53.176;6.614;2022-11-23T09:58:20;9.50;99.90
52127;DHT22;38120;53.176;6.614;2022-11-23T10:00:50;9.40;99.90
52127;DHT22;38120;53.176;6.614;2022-11-23T10:03:18;9.50;99.90
52127;DHT22;38120;53.176;6.614;2022-11-23T10:05:56;9.40;99.90
52127;DHT22;38120;53.176;6.614;2022-11-23T10:08:36;9.50;99.90
52127;DHT22;38120;53.176;6.614;2022-11-23T10:14:22;9.50;99.90
52127;DHT22;38120;53.176;6.614;2022-11-23T10:23:01;9.50;99.90
52127;DHT22;38120;53.176;6.614;2022-11-23T10:25:35;9.50;99.90
52127;DHT22;38120;53.176;6.614;2022-11-23T10:28:14;9.50;99.90
52127;DHT22;38120;53.176;6.614;2022-11-23T10:30:40;9.60;99.90
52127;DHT22;38120;53.176;6.614;2022-11-23T10:35:41;9.60;99.90
52127;DHT22;38120;53.176;6.614;2022-11-23T10:38:18;9.60;99.90
52127;DHT22;38120;53.176;6.614;2022-11-23T10:43:46;9.60;99.90
52127;DHT22;38120;53.176;6.614;2022-11-23T10:49:16;9.50;99.90
52127;DHT22;38120;53.176;6.614;2022-11-23T10:56:49;9.50;99.90
52127;DHT22;38120;53.176;6.614;2022-11-23T10:59:27;9.50;99.90
52127;DHT22;38120;53.176;6.614;2022-11-23T11:02:19;9.50;99.90
52127;DHT22;38120;53.176;6.614;2022-11-23T11:04:46;9.50;99.90
52127;DHT22;38120;53.176;6.614;2022-11-23T11:07:29;9.50;99.90
52127;DHT22;38120;53.176;6.614;2022-11-23T11:12:21;9.50;99.90
52127;DHT22;38120;53.176;6.614;2022-11-23T11:17:35;9.60;99.90
52127;DHT22;38120;53.176;6.614;2022-11-23T11:22:55;9.70;99.90
52127;DHT22;38120;53.176;6.614;2022-11-23T11:25:28;9.70;99.90
52127;DHT22;38120;53.176;6.614;2022-11-23T11:27:56;9.80;99.90
52127;DHT22;38120;53.176;6.614;2022-11-23T11:30:23;9.80;99.90
52127;DHT22;38120;53.176;6.614;2022-11-23T11:33:04;9.80;99.90
52127;DHT22;38120;53.176;6.614;2022-11-23T11:35:46;9.70;99.90
52127;DHT22;38120;53.176;6.614;2022-11-23T11:38:31;9.70;99.90
52127;DHT22;38120;53.176;6.614;2022-11-23T11:41:04;9.60;99.90
52127;DHT22;38120;53.176;6.614;2022-11-23T11:46:03;9.50;99.90
52127;DHT22;38120;53.176;6.614;2022-11-23T11:48:43;9.50;99.90
52127;DHT22;38120;53.176;6.614;2022-11-23T11:51:29;9.70;99.90
52127;DHT22;38120;53.176;6.614;2022-11-23T11:54:19;9.80;99.90
52127;DHT22;38120;53.176;6.614;2022-11-23T11:56:53;9.90;99.90
52127;DHT22;38120;53.176;6.614;2022-11-23T11:59:40;9.90;99.90
52127;DHT22;38120;53.176;6.614;2022-11-23T12:03:26;9.90;99.90
52127;DHT22;38120;53.176;6.614;2022-11-23T12:05:24;9.90;99.90
52127;DHT22;38120;53.176;6.614;2022-11-23T12:10:43;10.00;99.90
52127;DHT22;38120;53.176;6.614;2022-11-23T12:13:16;9.90;99.90
52127;DHT22;38120;53.176;6.614;2022-11-23T12:15:45;10.10;99.90
52127;DHT22;38120;53.176;6.614;2022-11-23T12:40:10;10.30;99.90
52127;DHT22;38120;53.176;6.614;2022-11-23T12:42:49;10.40;99.90
52127;DHT22;38120;53.176;6.614;2022-11-23T12:48:40;10.30;99.90
52127;DHT22;38120;53.176;6.614;2022-11-23T12:51:44;10.40;99.90
52127;DHT22;38120;53.176;6.614;2022-11-23T12:57:32;10.40;99.90
52127;DHT22;38120;53.176;6.614;2022-11-23T13:13:56;10.70;99.90
52127;DHT22;38120;53.176;6.614;2022-11-23T13:16:35;10.60;99.90
52127;DHT22;38120;53.176;6.614;2022-11-23T13:19:12;10.50;99.90
52127;DHT22;38120;53.176;6.614;2022-11-23T13:21:44;10.50;99.90
52127;DHT22;38120;53.176;6.614;2022-11-23T13:24:31;10.40;99.90
52127;DHT22;38120;53.176;6.614;2022-11-23T13:32:45;10.30;99.90
52127;DHT22;38120;53.176;6.614;2022-11-23T13:42:58;10.20;99.90
52127;DHT22;38120;53.176;6.614;2022-11-23T13:45:28;10.80;99.90
52127;DHT22;38120;53.176;6.614;2022-11-23T13:48:16;10.20;99.90
52127;DHT22;38120;53.176;6.614;2022-11-23T13:56:41;10.20;99.90
52127;DHT22;38120;53.176;6.614;2022-11-23T14:04:37;10.00;99.90
52127;DHT22;38120;53.176;6.614;2022-11-23T14:09:38;10.00;99.90
52127;DHT22;38120;53.176;6.614;2022-11-23T14:43:12;9.50;99.90
52127;DHT22;38120;53.176;6.614;2022-11-23T14:45:42;9.40;99.90
52127;DHT22;38120;53.176;6.614;2022-11-23T14:48:21;9.40;99.90
52127;DHT22;38120;53.176;6.614;2022-11-23T14:51:15;9.40;99.90
52127;DHT22;38120;53.176;6.614;2022-11-23T14:53:46;9.40;99.90
52127;DHT22;38120;53.176;6.614;2022-11-23T14:59:02;9.30;99.90
52127;DHT22;38120;53.176;6.614;2022-11-23T15:01:29;9.20;99.90
52127;DHT22;38120;53.176;6.614;2022-11-23T15:03:57;9.20;99.90
52127;DHT22;38120;53.176;6.614;2022-11-23T15:06:28;9.20;99.90
52127;DHT22;38120;53.176;6.614;2022-11-23T15:14:47;9.10;99.90
52127;DHT22;38120;53.176;6.614;2022-11-23T15:17:21;9.10;99.90
52127;DHT22;38120;53.176;6.614;2022-11-23T15:19:59;9.10;99.90
52127;DHT22;38120;53.176;6.614;2022-11-23T15:22:27;8.80;99.90
52127;DHT22;38120;53.176;6.614;2022-11-23T15:24:53;9.30;99.90
52127;DHT22;38120;53.176;6.614;2022-11-23T15:27:29;8.90;99.90
52127;DHT22;38120;53.176;6.614;2022-11-23T15:29:57;9.10;99.90
52127;DHT22;38120;53.176;6.614;2022-11-23T15:32:28;9.10;99.90
52127;DHT22;38120;53.176;6.614;2022-11-23T15:35:00;8.90;99.90
52127;DHT22;38120;53.176;6.614;2022-11-23T15:37:27;8.90;99.90
52127;DHT22;38120;53.176;6.614;2022-11-23T15:39:56;8.90;99.90
52127;DHT22;38120;53.176;6.614;2022-11-23T15:42:23;9.00;99.90
52127;DHT22;38120;53.176;6.614;2022-11-23T15:44:50;9.00;99.90
52127;DHT22;38120;53.176;6.614;2022-11-23T15:47:22;9.10;99.90
52127;DHT22;38120;53.176;6.614;2022-11-23T15:49:53;9.10;99.90
52127;DHT22;38120;53.176;6.614;2022-11-23T15:52:21;9.20;99.90
52127;DHT22;38120;53.176;6.614;2022-11-23T15:54:47;9.20;99.90
52127;DHT22;38120;53.176;6.614;2022-11-23T15:57:19;9.30;99.90
52127;DHT22;38120;53.176;6.614;2022-11-23T15:59:49;9.20;99.90
52127;DHT22;38120;53.176;6.614;2022-11-23T16:02:26;9.30;99.90
52127;DHT22;38120;53.176;6.614;2022-11-23T16:05:15;9.40;99.90
52127;DHT22;38120;53.176;6.614;2022-11-23T16:07:57;9.30;99.90
52127;DHT22;38120;53.176;6.614;2022-11-23T16:10:25;9.20;99.90
52127;DHT22;38120;53.176;6.614;2022-11-23T16:12:56;9.30;99.90
52127;DHT22;38120;53.176;6.614;2022-11-23T16:20:45;9.10;99.90
52127;DHT22;38120;53.176;6.614;2022-11-23T16:23:19;9.00;99.90
52127;DHT22;38120;53.176;6.614;2022-11-23T16:25:56;9.00;99.90
52127;DHT22;38120;53.176;6.614;2022-11-23T16:28:27;8.90;99.90
52127;DHT22;38120;53.176;6.614;2022-11-23T16:30:53;9.40;99.90
52127;DHT22;38120;53.176;6.614;2022-11-23T16:33:19;8.90;99.90
52127;DHT22;38120;53.176;6.614;2022-11-23T16:35:46;8.90;99.90
52127;DHT22;38120;53.176;6.614;2022-11-23T16:38:12;8.90;99.90
52127;DHT22;38120;53.176;6.614;2022-11-23T16:40:38;8.80;99.90
52127;DHT22;38120;53.176;6.614;2022-11-23T16:43:04;8.80;99.90
52127;DHT22;38120;53.176;6.614;2022-11-23T16:45:31;8.80;99.90
52127;DHT22;38120;53.176;6.614;2022-11-23T16:47:57;8.80;99.90
52127;DHT22;38120;53.176;6.614;2022-11-23T16:50:32;9.20;99.90
52127;DHT22;38120;53.176;6.614;2022-11-23T16:53:11;8.80;99.90
52127;DHT22;38120;53.176;6.614;2022-11-23T16:55:37;8.90;99.90
52127;DHT22;38120;53.176;6.614;2022-11-23T16:58:03;8.80;99.90
52127;DHT22;38120;53.176;6.614;2022-11-23T17:00:29;8.80;99.90
52127;DHT22;38120;53.176;6.614;2022-11-23T17:02:57;8.80;99.90
52127;DHT22;38120;53.176;6.614;2022-11-23T17:05:22;8.70;99.90
52127;DHT22;38120;53.176;6.614;2022-11-23T17:07:48;8.70;99.90
52127;DHT22;38120;53.176;6.614;2022-11-23T17:10:14;8.70;99.90
52127;DHT22;38120;53.176;6.614;2022-11-23T17:12:48;8.70;99.90
52127;DHT22;38120;53.176;6.614;2022-11-23T17:15:15;8.70;99.90
52127;DHT22;38120;53.176;6.614;2022-11-23T17:17:44;8.70;99.90
52127;DHT22;38120;53.176;6.614;2022-11-23T17:20:13;8.70;99.90
52127;DHT22;38120;53.176;6.614;2022-11-23T17:22:39;8.70;99.90
52127;DHT22;38120;53.176;6.614;2022-11-23T17:25:07;9.60;99.90
52127;DHT22;38120;53.176;6.614;2022-11-23T17:27:35;8.60;99.90
52127;DHT22;38120;53.176;6.614;2022-11-23T17:30:10;8.60;99.90
52127;DHT22;38120;53.176;6.614;2022-11-23T17:32:37;8.60;99.90
52127;DHT22;38120;53.176;6.614;2022-11-23T17:35:03;8.60;99.90
52127;DHT22;38120;53.176;6.614;2022-11-23T17:37:29;8.50;99.90
52127;DHT22;38120;53.176;6.614;2022-11-23T17:39:55;8.50;99.90
52127;DHT22;38120;53.176;6.614;2022-11-23T17:42:20;8.50;99.90
52127;DHT22;38120;53.176;6.614;2022-11-23T17:44:46;8.40;99.90
52127;DHT22;38120;53.176;6.614;2022-11-23T17:47:30;8.40;99.90
52127;DHT22;38120;53.176;6.614;2022-11-23T17:49:56;8.30;99.90
52127;DHT22;38120;53.176;6.614;2022-11-23T17:52:23;8.30;99.90
52127;DHT22;38120;53.176;6.614;2022-11-23T17:54:49;8.30;99.90
52127;DHT22;38120;53.176;6.614;2022-11-23T17:57:17;8.30;99.90
52127;DHT22;38120;53.176;6.614;2022-11-23T17:59:43;8.20;99.90
52127;DHT22;38120;53.176;6.614;2022-11-23T18:02:09;8.20;99.90
52127;DHT22;38120;53.176;6.614;2022-11-23T18:04:35;8.80;99.90
52127;DHT22;38120;53.176;6.614;2022-11-23T18:07:02;8.10;99.90
52127;DHT22;38120;53.176;6.614;2022-11-23T18:09:27;8.10;99.90
52127;DHT22;38120;53.176;6.614;2022-11-23T18:11:53;8.10;99.90
52127;DHT22;38120;53.176;6.614;2022-11-23T18:14:19;8.10;99.90
52127;DHT22;38120;53.176;6.614;2022-11-23T18:16:47;9.00;99.90
52127;DHT22;38120;53.176;6.614;2022-11-23T18:19:13;8.10;99.90
52127;DHT22;38120;53.176;6.614;2022-11-23T18:21:40;8.10;99.90
52127;DHT22;38120;53.176;6.614;2022-11-23T18:24:06;8.10;99.90
52127;DHT22;38120;53.176;6.614;2022-11-23T18:26:34;8.10;99.90
52127;DHT22;38120;53.176;6.614;2022-11-23T18:29:01;8.00;99.90
52127;DHT22;38120;53.176;6.614;2022-11-23T18:31:27;8.10;99.90
52127;DHT22;38120;53.176;6.614;2022-11-23T18:33:53;8.00;99.90
52127;DHT22;38120;53.176;6.614;2022-11-23T18:36:19;8.00;99.90
52127;DHT22;38120;53.176;6.614;2022-11-23T18:38:45;8.10;99.90
52127;DHT22;38120;53.176;6.614;2022-11-23T18:41:12;8.10;99.90
52127;DHT22;38120;53.176;6.614;2022-11-23T18:43:40;8.10;99.90